sensor_id;sensor_type;location;lat;lon;timestamp;temperature;humidity
69082;DHT22;69029;51.986;5.760;2023-07-16T00:01:39;21.50;80.60
69082;DHT22;69029;51.986;5.760;2023-07-16T00:04:04;21.50;78.20
69082;DHT22;69029;51.986;5.760;2023-07-16T00:06:30;21.60;77.40
69082;DHT22;69029;51.986;5.760;2023-07-16T00:08:55;21.60;74.90
69082;DHT22;69029;51.986;5.760;2023-07-16T00:11:21;21.60;77.30
69082;DHT22;69029;51.986;5.760;2023-07-16T00:13:46;21.50;77.70
69082;DHT22;69029;51.986;5.760;2023-07-16T00:16:14;21.50;75.10
69082;DHT22;69029;51.986;5.760;2023-07-16T00:18:41;21.50;75.20
69082;DHT22;69029;51.986;5.760;2023-07-16T00:21:08;21.50;73.40
69082;DHT22;69029;51.986;5.760;2023-07-16T00:23:33;21.40;72.30
69082;DHT22;69029;51.986;5.760;2023-07-16T00:25:59;21.40;74.00
69082;DHT22;69029;51.986;5.760;2023-07-16T00:28:24;21.40;75.90
69082;DHT22;69029;51.986;5.760;2023-07-16T00:30:50;21.40;74.60
69082;DHT22;69029;51.986;5.760;2023-07-16T00:33:15;21.50;75.90
69082;DHT22;69029;51.986;5.760;2023-07-16T00:35:47;21.50;76.40
69082;DHT22;69029;51.986;5.760;2023-07-16T00:38:14;21.50;74.50
69082;DHT22;69029;51.986;5.760;2023-07-16T00:40:42;21.40;73.60
69082;DHT22;69029;51.986;5.760;2023-07-16T00:43:08;21.40;75.10
69082;DHT22;69029;51.986;5.760;2023-07-16T00:45:33;21.30;77.60
69082;DHT22;69029;51.986;5.760;2023-07-16T00:47:59;21.20;77.50
69082;DHT22;69029;51.986;5.760;2023-07-16T00:50:24;21.20;76.80
69082;DHT22;69029;51.986;5.760;2023-07-16T00:52:50;21.20;78.80
69082;DHT22;69029;51.986;5.760;2023-07-16T00:55:16;21.20;80.30
69082;DHT22;69029;51.986;5.760;2023-07-16T00:57:41;21.20;81.80
69082;DHT22;69029;51.986;5.760;2023-07-16T01:00:08;21.20;80.40
69082;DHT22;69029;51.986;5.760;2023-07-16T01:02:35;21.10;79.50
69082;DHT22;69029;51.986;5.760;2023-07-16T01:05:00;21.10;80.70
69082;DHT22;69029;51.986;5.760;2023-07-16T01:07:28;21.10;81.30
69082;DHT22;69029;51.986;5.760;2023-07-16T01:09:55;20.90;78.80
69082;DHT22;69029;51.986;5.760;2023-07-16T01:12:22;20.80;84.80
69082;DHT22;69029;51.986;5.760;2023-07-16T01:14:49;20.90;84.30
69082;DHT22;69029;51.986;5.760;2023-07-16T01:17:16;20.90;79.70
69082;DHT22;69029;51.986;5.760;2023-07-16T01:19:41;21.00;81.50
69082;DHT22;69029;51.986;5.760;2023-07-16T01:28:16;20.80;77.80
69082;DHT22;69029;51.986;5.760;2023-07-16T01:30:44;20.90;78.60
69082;DHT22;69029;51.986;5.760;2023-07-16T01:33:12;20.90;75.90
69082;DHT22;69029;51.986;5.760;2023-07-16T01:35:39;20.90;74.20
69082;DHT22;69029;51.986;5.760;2023-07-16T01:38:07;20.80;76.20
69082;DHT22;69029;51.986;5.760;2023-07-16T01:40:33;20.80;77.10
69082;DHT22;69029;51.986;5.760;2023-07-16T01:43:00;20.70;76.20
69082;DHT22;69029;51.986;5.760;2023-07-16T01:45:26;20.70;77.60
69082;DHT22;69029;51.986;5.760;2023-07-16T01:50:44;20.50;78.00
69082;DHT22;69029;51.986;5.760;2023-07-16T01:53:10;20.50;76.50
69082;DHT22;69029;51.986;5.760;2023-07-16T01:55:35;20.60;77.50
69082;DHT22;69029;51.986;5.760;2023-07-16T01:58:01;20.50;75.60
69082;DHT22;69029;51.986;5.760;2023-07-16T02:00:27;20.60;77.40
69082;DHT22;69029;51.986;5.760;2023-07-16T02:02:53;20.50;75.40
69082;DHT22;69029;51.986;5.760;2023-07-16T02:05:19;20.50;75.90
69082;DHT22;69029;51.986;5.760;2023-07-16T02:07:44;20.40;77.10
69082;DHT22;69029;51.986;5.760;2023-07-16T02:10:10;20.40;78.60
69082;DHT22;69029;51.986;5.760;2023-07-16T02:12:35;20.30;76.40
69082;DHT22;69029;51.986;5.760;2023-07-16T02:15:01;20.40;75.90
69082;DHT22;69029;51.986;5.760;2023-07-16T02:17:27;20.40;75.70
69082;DHT22;69029;51.986;5.760;2023-07-16T02:19:53;20.40;76.40
69082;DHT22;69029;51.986;5.760;2023-07-16T02:22:18;20.50;76.60
69082;DHT22;69029;51.986;5.760;2023-07-16T02:24:44;20.40;74.80
69082;DHT22;69029;51.986;5.760;2023-07-16T02:27:16;20.40;74.80
69082;DHT22;69029;51.986;5.760;2023-07-16T02:29:41;20.30;75.30
69082;DHT22;69029;51.986;5.760;2023-07-16T02:32:07;20.30;75.30
69082;DHT22;69029;51.986;5.760;2023-07-16T02:34:33;20.20;74.30
69082;DHT22;69029;51.986;5.760;2023-07-16T02:36:58;20.30;75.70
69082;DHT22;69029;51.986;5.760;2023-07-16T02:39:24;20.20;76.20
69082;DHT22;69029;51.986;5.760;2023-07-16T02:41:49;20.20;74.90
69082;DHT22;69029;51.986;5.760;2023-07-16T02:44:15;20.20;75.10
69082;DHT22;69029;51.986;5.760;2023-07-16T02:46:41;20.10;75.30
69082;DHT22;69029;51.986;5.760;2023-07-16T02:49:07;20.10;76.50
69082;DHT22;69029;51.986;5.760;2023-07-16T02:51:32;20.00;78.10
69082;DHT22;69029;51.986;5.760;2023-07-16T02:53:58;19.90;76.40
69082;DHT22;69029;51.986;5.760;2023-07-16T02:56:24;20.00;77.20
69082;DHT22;69029;51.986;5.760;2023-07-16T02:58:49;20.00;80.60
69082;DHT22;69029;51.986;5.760;2023-07-16T03:01:15;20.00;77.80
69082;DHT22;69029;51.986;5.760;2023-07-16T03:03:40;19.90;78.50
69082;DHT22;69029;51.986;5.760;2023-07-16T03:06:07;19.90;79.10
69082;DHT22;69029;51.986;5.760;2023-07-16T03:08:34;19.90;78.20
69082;DHT22;69029;51.986;5.760;2023-07-16T03:10:59;19.90;79.20
69082;DHT22;69029;51.986;5.760;2023-07-16T03:13:26;19.90;79.50
69082;DHT22;69029;51.986;5.760;2023-07-16T03:15:52;19.90;81.50
69082;DHT22;69029;51.986;5.760;2023-07-16T03:18:20;19.90;83.90
69082;DHT22;69029;51.986;5.760;2023-07-16T03:20:46;20.00;80.40
69082;DHT22;69029;51.986;5.760;2023-07-16T03:23:12;20.00;81.50
69082;DHT22;69029;51.986;5.760;2023-07-16T03:25:37;20.00;81.20
69082;DHT22;69029;51.986;5.760;2023-07-16T03:28:03;20.00;81.90
69082;DHT22;69029;51.986;5.760;2023-07-16T03:30:30;19.60;85.10
69082;DHT22;69029;51.986;5.760;2023-07-16T03:32:56;19.60;91.30
69082;DHT22;69029;51.986;5.760;2023-07-16T03:35:22;19.60;89.00
69082;DHT22;69029;51.986;5.760;2023-07-16T03:37:47;19.60;86.80
69082;DHT22;69029;51.986;5.760;2023-07-16T03:40:14;19.60;88.30
69082;DHT22;69029;51.986;5.760;2023-07-16T03:42:40;19.30;87.70
69082;DHT22;69029;51.986;5.760;2023-07-16T03:45:07;19.30;87.10
69082;DHT22;69029;51.986;5.760;2023-07-16T03:47:32;19.40;87.80
69082;DHT22;69029;51.986;5.760;2023-07-16T03:49:58;19.40;83.60
69082;DHT22;69029;51.986;5.760;2023-07-16T03:52:24;19.50;86.60
69082;DHT22;69029;51.986;5.760;2023-07-16T03:54:50;19.40;83.20
69082;DHT22;69029;51.986;5.760;2023-07-16T03:57:16;19.40;79.70
69082;DHT22;69029;51.986;5.760;2023-07-16T03:59:42;19.40;83.20
69082;DHT22;69029;51.986;5.760;2023-07-16T04:02:08;19.40;87.60
69082;DHT22;69029;51.986;5.760;2023-07-16T04:04:34;19.30;85.10
69082;DHT22;69029;51.986;5.760;2023-07-16T04:06:59;19.40;82.50
69082;DHT22;69029;51.986;5.760;2023-07-16T04:09:25;19.30;81.90
69082;DHT22;69029;51.986;5.760;2023-07-16T04:11:51;19.40;82.80
69082;DHT22;69029;51.986;5.760;2023-07-16T04:14:16;19.40;81.90
69082;DHT22;69029;51.986;5.760;2023-07-16T04:16:42;19.30;84.60
69082;DHT22;69029;51.986;5.760;2023-07-16T04:19:08;19.40;82.00
69082;DHT22;69029;51.986;5.760;2023-07-16T04:21:35;19.50;83.10
69082;DHT22;69029;51.986;5.760;2023-07-16T04:24:02;19.50;82.80
69082;DHT22;69029;51.986;5.760;2023-07-16T04:26:28;19.50;85.80
69082;DHT22;69029;51.986;5.760;2023-07-16T04:28:54;19.60;85.00
69082;DHT22;69029;51.986;5.760;2023-07-16T04:31:19;19.70;86.10
69082;DHT22;69029;51.986;5.760;2023-07-16T04:33:45;19.60;85.80
69082;DHT22;69029;51.986;5.760;2023-07-16T04:36:11;19.60;90.40
69082;DHT22;69029;51.986;5.760;2023-07-16T04:38:36;19.50;88.60
69082;DHT22;69029;51.986;5.760;2023-07-16T04:41:03;19.50;89.70
69082;DHT22;69029;51.986;5.760;2023-07-16T04:43:28;19.50;90.40
69082;DHT22;69029;51.986;5.760;2023-07-16T04:45:54;19.50;90.50
69082;DHT22;69029;51.986;5.760;2023-07-16T04:48:20;19.50;87.80
69082;DHT22;69029;51.986;5.760;2023-07-16T04:50:45;19.40;84.60
69082;DHT22;69029;51.986;5.760;2023-07-16T04:53:11;19.30;84.40
69082;DHT22;69029;51.986;5.760;2023-07-16T04:55:38;19.20;86.40
69082;DHT22;69029;51.986;5.760;2023-07-16T04:58:04;19.00;85.60
69082;DHT22;69029;51.986;5.760;2023-07-16T05:00:32;19.10;86.60
69082;DHT22;69029;51.986;5.760;2023-07-16T05:02:58;19.00;87.10
69082;DHT22;69029;51.986;5.760;2023-07-16T05:05:24;19.10;85.20
69082;DHT22;69029;51.986;5.760;2023-07-16T05:07:50;19.10;85.70
69082;DHT22;69029;51.986;5.760;2023-07-16T05:10:15;19.20;83.70
69082;DHT22;69029;51.986;5.760;2023-07-16T05:12:41;19.20;80.20
69082;DHT22;69029;51.986;5.760;2023-07-16T05:15:07;19.20;81.00
69082;DHT22;69029;51.986;5.760;2023-07-16T05:17:33;19.10;79.30
69082;DHT22;69029;51.986;5.760;2023-07-16T05:19:59;19.20;80.80
69082;DHT22;69029;51.986;5.760;2023-07-16T05:22:24;19.20;80.30
69082;DHT22;69029;51.986;5.760;2023-07-16T05:24:50;19.20;79.30
69082;DHT22;69029;51.986;5.760;2023-07-16T05:27:16;19.30;80.70
69082;DHT22;69029;51.986;5.760;2023-07-16T05:29:41;19.20;78.70
69082;DHT22;69029;51.986;5.760;2023-07-16T05:32:07;19.30;79.50
69082;DHT22;69029;51.986;5.760;2023-07-16T05:34:33;19.40;78.90
69082;DHT22;69029;51.986;5.760;2023-07-16T05:36:59;19.40;79.30
69082;DHT22;69029;51.986;5.760;2023-07-16T05:39:25;19.40;78.20
69082;DHT22;69029;51.986;5.760;2023-07-16T05:41:50;19.30;78.40
69082;DHT22;69029;51.986;5.760;2023-07-16T05:44:16;19.30;77.60
69082;DHT22;69029;51.986;5.760;2023-07-16T05:46:42;19.30;77.00
69082;DHT22;69029;51.986;5.760;2023-07-16T05:49:07;19.30;79.90
69082;DHT22;69029;51.986;5.760;2023-07-16T05:51:33;19.30;78.50
69082;DHT22;69029;51.986;5.760;2023-07-16T05:53:59;19.30;81.10
69082;DHT22;69029;51.986;5.760;2023-07-16T05:56:24;19.30;78.90
69082;DHT22;69029;51.986;5.760;2023-07-16T05:58:50;19.40;78.40
69082;DHT22;69029;51.986;5.760;2023-07-16T06:01:15;19.30;78.10
69082;DHT22;69029;51.986;5.760;2023-07-16T06:03:41;19.30;76.90
69082;DHT22;69029;51.986;5.760;2023-07-16T06:06:08;19.40;76.40
69082;DHT22;69029;51.986;5.760;2023-07-16T06:08:34;19.30;76.30
69082;DHT22;69029;51.986;5.760;2023-07-16T06:11:00;19.20;77.00
69082;DHT22;69029;51.986;5.760;2023-07-16T06:13:25;19.20;76.20
69082;DHT22;69029;51.986;5.760;2023-07-16T06:15:51;19.30;77.10
69082;DHT22;69029;51.986;5.760;2023-07-16T06:18:16;19.30;76.00
69082;DHT22;69029;51.986;5.760;2023-07-16T06:20:45;19.10;77.70
69082;DHT22;69029;51.986;5.760;2023-07-16T06:23:14;19.10;78.50
69082;DHT22;69029;51.986;5.760;2023-07-16T06:25:42;19.20;78.30
69082;DHT22;69029;51.986;5.760;2023-07-16T06:28:10;19.30;77.00
69082;DHT22;69029;51.986;5.760;2023-07-16T06:30:37;19.20;76.70
69082;DHT22;69029;51.986;5.760;2023-07-16T06:33:02;19.30;79.80
69082;DHT22;69029;51.986;5.760;2023-07-16T06:35:28;19.40;77.00
69082;DHT22;69029;51.986;5.760;2023-07-16T06:37:54;19.30;76.30
69082;DHT22;69029;51.986;5.760;2023-07-16T06:40:19;19.20;78.40
69082;DHT22;69029;51.986;5.760;2023-07-16T06:42:45;19.20;77.10
69082;DHT22;69029;51.986;5.760;2023-07-16T06:45:10;19.30;78.00
69082;DHT22;69029;51.986;5.760;2023-07-16T06:47:36;19.30;78.10
69082;DHT22;69029;51.986;5.760;2023-07-16T06:50:02;19.30;77.50
69082;DHT22;69029;51.986;5.760;2023-07-16T06:52:28;19.40;78.70
69082;DHT22;69029;51.986;5.760;2023-07-16T06:54:54;19.40;76.70
69082;DHT22;69029;51.986;5.760;2023-07-16T06:57:21;19.50;77.70
69082;DHT22;69029;51.986;5.760;2023-07-16T06:59:46;19.50;76.40
69082;DHT22;69029;51.986;5.760;2023-07-16T07:02:12;19.50;77.20
69082;DHT22;69029;51.986;5.760;2023-07-16T07:04:38;19.50;77.20
69082;DHT22;69029;51.986;5.760;2023-07-16T07:07:04;19.60;75.70
69082;DHT22;69029;51.986;5.760;2023-07-16T07:09:30;19.60;76.80
69082;DHT22;69029;51.986;5.760;2023-07-16T07:11:55;19.60;76.90
69082;DHT22;69029;51.986;5.760;2023-07-16T07:14:21;19.70;76.80
69082;DHT22;69029;51.986;5.760;2023-07-16T07:16:46;19.70;77.00
69082;DHT22;69029;51.986;5.760;2023-07-16T07:19:12;19.60;77.80
69082;DHT22;69029;51.986;5.760;2023-07-16T07:21:37;19.70;78.10
69082;DHT22;69029;51.986;5.760;2023-07-16T07:24:03;19.80;78.00
69082;DHT22;69029;51.986;5.760;2023-07-16T07:26:29;20.00;76.80
69082;DHT22;69029;51.986;5.760;2023-07-16T07:28:55;20.00;77.10
69082;DHT22;69029;51.986;5.760;2023-07-16T07:31:20;19.90;75.70
69082;DHT22;69029;51.986;5.760;2023-07-16T07:33:46;20.00;76.30
69082;DHT22;69029;51.986;5.760;2023-07-16T07:36:11;20.00;76.60
69082;DHT22;69029;51.986;5.760;2023-07-16T07:38:37;20.00;76.70
69082;DHT22;69029;51.986;5.760;2023-07-16T07:41:05;20.10;76.20
69082;DHT22;69029;51.986;5.760;2023-07-16T07:43:31;20.10;76.10
69082;DHT22;69029;51.986;5.760;2023-07-16T07:45:56;20.20;79.30
69082;DHT22;69029;51.986;5.760;2023-07-16T07:48:22;20.30;75.10
69082;DHT22;69029;51.986;5.760;2023-07-16T07:50:48;20.40;76.30
69082;DHT22;69029;51.986;5.760;2023-07-16T07:53:13;20.40;73.30
69082;DHT22;69029;51.986;5.760;2023-07-16T07:55:44;20.50;75.90
69082;DHT22;69029;51.986;5.760;2023-07-16T07:58:10;20.50;75.10
69082;DHT22;69029;51.986;5.760;2023-07-16T08:00:36;20.50;75.00
69082;DHT22;69029;51.986;5.760;2023-07-16T08:03:02;20.60;74.40
69082;DHT22;69029;51.986;5.760;2023-07-16T08:05:28;20.60;73.70
69082;DHT22;69029;51.986;5.760;2023-07-16T08:07:54;20.70;73.60
69082;DHT22;69029;51.986;5.760;2023-07-16T08:10:21;20.60;73.00
69082;DHT22;69029;51.986;5.760;2023-07-16T08:12:48;20.70;73.50
69082;DHT22;69029;51.986;5.760;2023-07-16T08:15:14;20.80;73.10
69082;DHT22;69029;51.986;5.760;2023-07-16T08:17:44;20.90;74.30
69082;DHT22;69029;51.986;5.760;2023-07-16T08:20:11;21.00;73.90
69082;DHT22;69029;51.986;5.760;2023-07-16T08:22:36;21.00;72.80
69082;DHT22;69029;51.986;5.760;2023-07-16T08:25:02;21.10;69.90
69082;DHT22;69029;51.986;5.760;2023-07-16T08:27:29;21.20;70.00
69082;DHT22;69029;51.986;5.760;2023-07-16T08:29:55;21.20;70.40
69082;DHT22;69029;51.986;5.760;2023-07-16T08:32:20;21.30;68.90
69082;DHT22;69029;51.986;5.760;2023-07-16T08:34:46;21.30;69.20
69082;DHT22;69029;51.986;5.760;2023-07-16T08:37:13;21.30;69.90
69082;DHT22;69029;51.986;5.760;2023-07-16T08:39:39;21.40;70.40
69082;DHT22;69029;51.986;5.760;2023-07-16T08:42:05;21.50;71.20
69082;DHT22;69029;51.986;5.760;2023-07-16T08:44:31;21.60;69.70
69082;DHT22;69029;51.986;5.760;2023-07-16T08:46:57;21.70;69.60
69082;DHT22;69029;51.986;5.760;2023-07-16T08:49:23;21.70;69.10
69082;DHT22;69029;51.986;5.760;2023-07-16T08:51:49;21.60;68.60
69082;DHT22;69029;51.986;5.760;2023-07-16T08:54:18;21.70;69.60
69082;DHT22;69029;51.986;5.760;2023-07-16T08:56:46;21.70;68.00
69082;DHT22;69029;51.986;5.760;2023-07-16T08:59:13;21.80;67.70
69082;DHT22;69029;51.986;5.760;2023-07-16T09:01:39;21.90;67.80
69082;DHT22;69029;51.986;5.760;2023-07-16T09:04:05;22.10;68.80
69082;DHT22;69029;51.986;5.760;2023-07-16T09:06:31;22.10;66.20
69082;DHT22;69029;51.986;5.760;2023-07-16T09:08:56;22.10;66.30
69082;DHT22;69029;51.986;5.760;2023-07-16T09:11:22;22.20;66.80
69082;DHT22;69029;51.986;5.760;2023-07-16T09:13:48;22.40;67.80
69082;DHT22;69029;51.986;5.760;2023-07-16T09:16:14;22.40;67.00
69082;DHT22;69029;51.986;5.760;2023-07-16T09:18:42;22.40;66.40
69082;DHT22;69029;51.986;5.760;2023-07-16T09:21:08;22.40;66.20
69082;DHT22;69029;51.986;5.760;2023-07-16T09:23:34;22.40;66.20
69082;DHT22;69029;51.986;5.760;2023-07-16T09:26:00;22.40;65.70
69082;DHT22;69029;51.986;5.760;2023-07-16T09:28:26;22.30;66.50
69082;DHT22;69029;51.986;5.760;2023-07-16T09:30:52;22.40;65.60
69082;DHT22;69029;51.986;5.760;2023-07-16T09:33:21;22.30;65.50
69082;DHT22;69029;51.986;5.760;2023-07-16T09:35:51;22.30;64.60
69082;DHT22;69029;51.986;5.760;2023-07-16T09:38:17;22.30;63.90
69082;DHT22;69029;51.986;5.760;2023-07-16T09:40:44;22.10;64.90
69082;DHT22;69029;51.986;5.760;2023-07-16T09:43:13;22.00;64.50
69082;DHT22;69029;51.986;5.760;2023-07-16T09:45:39;22.00;65.20
69082;DHT22;69029;51.986;5.760;2023-07-16T09:48:05;22.00;64.50
69082;DHT22;69029;51.986;5.760;2023-07-16T09:50:35;22.10;64.10
69082;DHT22;69029;51.986;5.760;2023-07-16T09:53:01;22.20;64.30
69082;DHT22;69029;51.986;5.760;2023-07-16T09:55:31;22.20;63.50
69082;DHT22;69029;51.986;5.760;2023-07-16T09:58:00;22.40;65.20
69082;DHT22;69029;51.986;5.760;2023-07-16T10:00:27;22.60;65.30
69082;DHT22;69029;51.986;5.760;2023-07-16T10:02:54;22.70;64.00
69082;DHT22;69029;51.986;5.760;2023-07-16T10:05:25;22.70;64.70
69082;DHT22;69029;51.986;5.760;2023-07-16T10:08:01;22.80;64.40
69082;DHT22;69029;51.986;5.760;2023-07-16T10:10:39;23.00;63.70
69082;DHT22;69029;51.986;5.760;2023-07-16T10:13:07;22.80;62.80
69082;DHT22;69029;51.986;5.760;2023-07-16T10:15:32;22.80;63.00
69082;DHT22;69029;51.986;5.760;2023-07-16T10:17:58;22.90;63.50
69082;DHT22;69029;51.986;5.760;2023-07-16T10:20:30;22.90;62.70
69082;DHT22;69029;51.986;5.760;2023-07-16T10:22:56;22.90;62.50
69082;DHT22;69029;51.986;5.760;2023-07-16T10:25:24;22.80;62.20
69082;DHT22;69029;51.986;5.760;2023-07-16T10:27:51;22.80;62.40
69082;DHT22;69029;51.986;5.760;2023-07-16T10:30:18;22.90;63.30
69082;DHT22;69029;51.986;5.760;2023-07-16T10:32:44;22.90;61.90
69082;DHT22;69029;51.986;5.760;2023-07-16T10:35:10;22.90;62.60
69082;DHT22;69029;51.986;5.760;2023-07-16T10:37:37;22.80;62.10
69082;DHT22;69029;51.986;5.760;2023-07-16T10:40:04;22.60;62.50
69082;DHT22;69029;51.986;5.760;2023-07-16T10:42:30;22.70;62.90
69082;DHT22;69029;51.986;5.760;2023-07-16T10:45:04;22.70;62.30
69082;DHT22;69029;51.986;5.760;2023-07-16T10:47:31;22.90;62.60
69082;DHT22;69029;51.986;5.760;2023-07-16T10:49:58;22.90;61.90
69082;DHT22;69029;51.986;5.760;2023-07-16T10:52:24;23.00;62.40
69082;DHT22;69029;51.986;5.760;2023-07-16T10:54:50;23.10;62.00
69082;DHT22;69029;51.986;5.760;2023-07-16T10:57:22;23.00;61.90
69082;DHT22;69029;51.986;5.760;2023-07-16T10:59:48;23.00;62.00
69082;DHT22;69029;51.986;5.760;2023-07-16T11:02:15;23.00;61.80
69082;DHT22;69029;51.986;5.760;2023-07-16T11:04:42;22.80;62.60
69082;DHT22;69029;51.986;5.760;2023-07-16T11:07:09;22.80;62.80
69082;DHT22;69029;51.986;5.760;2023-07-16T11:09:44;22.80;61.60
69082;DHT22;69029;51.986;5.760;2023-07-16T11:12:14;22.80;62.70
69082;DHT22;69029;51.986;5.760;2023-07-16T11:14:46;22.80;61.80
69082;DHT22;69029;51.986;5.760;2023-07-16T11:17:12;22.90;62.30
69082;DHT22;69029;51.986;5.760;2023-07-16T11:19:38;23.00;61.20
69082;DHT22;69029;51.986;5.760;2023-07-16T11:22:06;23.10;61.70
69082;DHT22;69029;51.986;5.760;2023-07-16T11:24:45;23.30;62.70
69082;DHT22;69029;51.986;5.760;2023-07-16T11:27:19;23.40;62.10
69082;DHT22;69029;51.986;5.760;2023-07-16T11:29:50;23.50;61.70
69082;DHT22;69029;51.986;5.760;2023-07-16T11:32:37;23.40;61.40
69082;DHT22;69029;51.986;5.760;2023-07-16T11:35:05;23.30;61.10
69082;DHT22;69029;51.986;5.760;2023-07-16T11:37:32;23.20;61.10
69082;DHT22;69029;51.986;5.760;2023-07-16T11:40:06;23.20;61.80
69082;DHT22;69029;51.986;5.760;2023-07-16T11:42:38;23.20;61.50
69082;DHT22;69029;51.986;5.760;2023-07-16T11:45:18;23.20;61.90
69082;DHT22;69029;51.986;5.760;2023-07-16T11:47:43;23.30;62.30
69082;DHT22;69029;51.986;5.760;2023-07-16T11:50:09;23.30;62.30
69082;DHT22;69029;51.986;5.760;2023-07-16T11:52:35;23.40;62.40
69082;DHT22;69029;51.986;5.760;2023-07-16T11:55:01;23.40;63.60
69082;DHT22;69029;51.986;5.760;2023-07-16T11:57:27;23.60;63.80
69082;DHT22;69029;51.986;5.760;2023-07-16T11:59:53;23.90;63.10
69082;DHT22;69029;51.986;5.760;2023-07-16T12:02:20;24.10;61.00
69082;DHT22;69029;51.986;5.760;2023-07-16T12:04:45;24.10;59.90
69082;DHT22;69029;51.986;5.760;2023-07-16T12:07:11;24.10;61.20
69082;DHT22;69029;51.986;5.760;2023-07-16T12:09:37;24.10;60.40
69082;DHT22;69029;51.986;5.760;2023-07-16T12:12:03;24.20;61.20
69082;DHT22;69029;51.986;5.760;2023-07-16T12:14:28;24.20;60.20
69082;DHT22;69029;51.986;5.760;2023-07-16T12:16:54;24.40;61.60
69082;DHT22;69029;51.986;5.760;2023-07-16T12:19:21;24.40;60.50
69082;DHT22;69029;51.986;5.760;2023-07-16T12:21:47;24.20;61.40
69082;DHT22;69029;51.986;5.760;2023-07-16T12:24:13;24.10;60.30
69082;DHT22;69029;51.986;5.760;2023-07-16T12:26:38;23.90;62.20
69082;DHT22;69029;51.986;5.760;2023-07-16T12:29:04;24.00;62.30
69082;DHT22;69029;51.986;5.760;2023-07-16T12:31:33;24.40;60.60
69082;DHT22;69029;51.986;5.760;2023-07-16T12:34:00;25.10;58.10
69082;DHT22;69029;51.986;5.760;2023-07-16T12:45:06;25.80;67.50
69082;DHT22;69029;51.986;5.760;2023-07-16T12:47:31;27.90;65.40
69082;DHT22;69029;51.986;5.760;2023-07-16T12:49:57;26.80;64.80
69082;DHT22;69029;51.986;5.760;2023-07-16T12:52:23;26.10;67.70
69082;DHT22;69029;51.986;5.760;2023-07-16T12:54:48;25.90;69.60
69082;DHT22;69029;51.986;5.760;2023-07-16T12:57:14;25.80;69.80
69082;DHT22;69029;51.986;5.760;2023-07-16T12:59:39;25.70;69.90
69082;DHT22;69029;51.986;5.760;2023-07-16T13:02:05;25.70;69.80
69082;DHT22;69029;51.986;5.760;2023-07-16T13:04:31;25.70;69.80
69082;DHT22;69029;51.986;5.760;2023-07-16T13:06:57;25.60;70.00
69082;DHT22;69029;51.986;5.760;2023-07-16T13:09:22;25.70;69.50
69082;DHT22;69029;51.986;5.760;2023-07-16T13:11:48;25.70;69.30
69082;DHT22;69029;51.986;5.760;2023-07-16T13:14:14;25.70;69.50
69082;DHT22;69029;51.986;5.760;2023-07-16T13:16:39;28.90;73.00
69082;DHT22;69029;51.986;5.760;2023-07-16T13:19:05;30.80;52.30
69082;DHT22;69029;51.986;5.760;2023-07-16T13:21:31;27.40;60.20
69082;DHT22;69029;51.986;5.760;2023-07-16T13:23:57;26.30;65.40
69082;DHT22;69029;51.986;5.760;2023-07-16T13:26:22;25.90;67.70
69082;DHT22;69029;51.986;5.760;2023-07-16T13:28:48;25.70;69.10
69082;DHT22;69029;51.986;5.760;2023-07-16T13:31:13;25.50;70.00
69082;DHT22;69029;51.986;5.760;2023-07-16T13:33:39;25.50;70.70
69082;DHT22;69029;51.986;5.760;2023-07-16T13:36:05;25.70;70.50
69082;DHT22;69029;51.986;5.760;2023-07-16T13:38:31;25.50;70.60
69082;DHT22;69029;51.986;5.760;2023-07-16T13:40:56;25.50;71.20
69082;DHT22;69029;51.986;5.760;2023-07-16T13:43:22;25.40;70.80
69082;DHT22;69029;51.986;5.760;2023-07-16T13:45:48;25.40;71.60
69082;DHT22;69029;51.986;5.760;2023-07-16T13:48:13;25.40;71.30
69082;DHT22;69029;51.986;5.760;2023-07-16T13:50:39;25.40;71.00
69082;DHT22;69029;51.986;5.760;2023-07-16T13:53:05;25.40;72.40
69082;DHT22;69029;51.986;5.760;2023-07-16T13:55:30;25.40;72.30
69082;DHT22;69029;51.986;5.760;2023-07-16T13:57:56;25.40;71.60
69082;DHT22;69029;51.986;5.760;2023-07-16T14:00:22;25.40;71.80
69082;DHT22;69029;51.986;5.760;2023-07-16T14:02:48;25.40;71.60
69082;DHT22;69029;51.986;5.760;2023-07-16T14:05:13;25.40;71.60
69082;DHT22;69029;51.986;5.760;2023-07-16T14:07:39;25.40;71.90
69082;DHT22;69029;51.986;5.760;2023-07-16T14:10:05;25.50;72.00
69082;DHT22;69029;51.986;5.760;2023-07-16T14:12:31;25.70;71.60
69082;DHT22;69029;51.986;5.760;2023-07-16T14:14:56;25.70;71.50
69082;DHT22;69029;51.986;5.760;2023-07-16T14:17:22;25.60;71.10
69082;DHT22;69029;51.986;5.760;2023-07-16T14:19:49;25.60;71.20
69082;DHT22;69029;51.986;5.760;2023-07-16T14:22:15;25.70;71.50
69082;DHT22;69029;51.986;5.760;2023-07-16T14:24:41;25.70;71.50
69082;DHT22;69029;51.986;5.760;2023-07-16T14:27:07;25.70;71.00
69082;DHT22;69029;51.986;5.760;2023-07-16T14:29:34;25.80;71.00
69082;DHT22;69029;51.986;5.760;2023-07-16T14:31:59;25.80;70.40
69082;DHT22;69029;51.986;5.760;2023-07-16T14:34:26;25.70;70.90
69082;DHT22;69029;51.986;5.760;2023-07-16T14:36:52;25.70;71.40
69082;DHT22;69029;51.986;5.760;2023-07-16T14:39:18;25.80;70.40
69082;DHT22;69029;51.986;5.760;2023-07-16T14:41:43;25.70;70.30
69082;DHT22;69029;51.986;5.760;2023-07-16T14:44:09;25.80;70.50
69082;DHT22;69029;51.986;5.760;2023-07-16T14:46:35;25.60;70.80
69082;DHT22;69029;51.986;5.760;2023-07-16T14:49:01;25.50;71.40
69082;DHT22;69029;51.986;5.760;2023-07-16T14:51:27;25.50;71.50
69082;DHT22;69029;51.986;5.760;2023-07-16T14:53:53;25.40;71.60
69082;DHT22;69029;51.986;5.760;2023-07-16T14:56:19;25.40;71.40
69082;DHT22;69029;51.986;5.760;2023-07-16T14:58:44;31.00;99.90
69082;DHT22;69029;51.986;5.760;2023-07-16T15:01:10;33.50;99.90
69082;DHT22;69029;51.986;5.760;2023-07-16T15:03:37;30.40;53.50
69082;DHT22;69029;51.986;5.760;2023-07-16T15:06:03;28.30;63.00
69082;DHT22;69029;51.986;5.760;2023-07-16T15:08:29;27.20;67.40
69082;DHT22;69029;51.986;5.760;2023-07-16T15:10:56;26.50;70.00
69082;DHT22;69029;51.986;5.760;2023-07-16T15:13:22;26.00;72.10
69082;DHT22;69029;51.986;5.760;2023-07-16T15:15:52;25.70;73.60
69082;DHT22;69029;51.986;5.760;2023-07-16T15:18:21;25.70;74.30
69082;DHT22;69029;51.986;5.760;2023-07-16T15:20:47;25.50;74.70
69082;DHT22;69029;51.986;5.760;2023-07-16T15:23:13;25.50;75.60
69082;DHT22;69029;51.986;5.760;2023-07-16T15:25:42;25.40;74.80
69082;DHT22;69029;51.986;5.760;2023-07-16T15:28:11;25.50;75.40
69082;DHT22;69029;51.986;5.760;2023-07-16T15:30:37;25.50;76.10
69082;DHT22;69029;51.986;5.760;2023-07-16T15:35:29;25.60;74.10
69082;DHT22;69029;51.986;5.760;2023-07-16T15:37:54;25.70;74.70
69082;DHT22;69029;51.986;5.760;2023-07-16T15:40:22;25.60;74.90
69082;DHT22;69029;51.986;5.760;2023-07-16T15:42:47;25.50;74.60
69082;DHT22;69029;51.986;5.760;2023-07-16T15:45:13;25.50;75.20